sensor_id;sensor_type;location;lat;lon;timestamp;P1;durP1;ratioP1;P2;durP2;ratioP2
55589;SDS011;41452;42.780;23.116;2024-03-22T00:00:38;8.77;;;3.70;;
55589;SDS011;41452;42.780;23.116;2024-03-22T00:03:03;14.27;;;3.33;;
55589;SDS011;41452;42.780;23.116;2024-03-22T00:05:29;5.97;;;3.33;;
55589;SDS011;41452;42.780;23.116;2024-03-22T00:07:54;7.95;;;3.42;;
55589;SDS011;41452;42.780;23.116;2024-03-22T00:10:19;7.07;;;3.25;;
55589;SDS011;41452;42.780;23.116;2024-03-22T00:12:45;6.28;;;3.33;;
55589;SDS011;41452;42.780;23.116;2024-03-22T00:15:10;9.60;;;3.72;;
55589;SDS011;41452;42.780;23.116;2024-03-22T00:17:35;6.72;;;3.40;;
55589;SDS011;41452;42.780;23.116;2024-03-22T00:20:01;7.55;;;3.30;;
55589;SDS011;41452;42.780;23.116;2024-03-22T00:22:26;9.57;;;3.45;;
55589;SDS011;41452;42.780;23.116;2024-03-22T00:24:51;6.70;;;3.17;;
55589;SDS011;41452;42.780;23.116;2024-03-22T00:27:17;7.88;;;3.40;;
55589;SDS011;41452;42.780;23.116;2024-03-22T00:29:42;6.85;;;3.28;;
55589;SDS011;41452;42.780;23.116;2024-03-22T00:32:08;6.95;;;3.08;;
55589;SDS011;41452;42.780;23.116;2024-03-22T00:34:36;5.95;;;3.13;;
55589;SDS011;41452;42.780;23.116;2024-03-22T00:37:01;5.50;;;3.03;;
55589;SDS011;41452;42.780;23.116;2024-03-22T00:39:27;9.73;;;3.50;;
55589;SDS011;41452;42.780;23.116;2024-03-22T00:41:52;8.48;;;3.35;;
55589;SDS011;41452;42.780;23.116;2024-03-22T00:44:17;5.47;;;3.40;;
55589;SDS011;41452;42.780;23.116;2024-03-22T00:46:43;6.32;;;3.45;;
55589;SDS011;41452;42.780;23.116;2024-03-22T00:49:08;6.63;;;3.72;;
55589;SDS011;41452;42.780;23.116;2024-03-22T00:51:34;5.28;;;3.35;;
55589;SDS011;41452;42.780;23.116;2024-03-22T00:53:59;7.80;;;3.58;;
55589;SDS011;41452;42.780;23.116;2024-03-22T00:56:24;7.00;;;3.03;;
55589;SDS011;41452;42.780;23.116;2024-03-22T00:58:50;7.68;;;3.80;;
55589;SDS011;41452;42.780;23.116;2024-03-22T01:01:15;10.10;;;3.90;;
55589;SDS011;41452;42.780;23.116;2024-03-22T01:03:40;6.45;;;2.85;;
55589;SDS011;41452;42.780;23.116;2024-03-22T01:06:06;6.55;;;3.88;;
55589;SDS011;41452;42.780;23.116;2024-03-22T01:08:32;10.13;;;3.33;;
55589;SDS011;41452;42.780;23.116;2024-03-22T01:10:58;6.93;;;3.20;;
55589;SDS011;41452;42.780;23.116;2024-03-22T01:13:23;9.40;;;3.38;;
55589;SDS011;41452;42.780;23.116;2024-03-22T01:15:48;5.95;;;3.53;;
55589;SDS011;41452;42.780;23.116;2024-03-22T01:18:14;8.98;;;3.50;;
55589;SDS011;41452;42.780;23.116;2024-03-22T01:20:39;5.55;;;3.33;;
55589;SDS011;41452;42.780;23.116;2024-03-22T01:23:04;7.95;;;3.00;;
55589;SDS011;41452;42.780;23.116;2024-03-22T01:25:30;6.03;;;3.42;;
55589;SDS011;41452;42.780;23.116;2024-03-22T01:27:55;7.03;;;3.53;;
55589;SDS011;41452;42.780;23.116;2024-03-22T01:30:21;6.50;;;2.97;;
55589;SDS011;41452;42.780;23.116;2024-03-22T01:32:46;11.57;;;3.35;;
55589;SDS011;41452;42.780;23.116;2024-03-22T01:35:12;6.32;;;3.53;;
55589;SDS011;41452;42.780;23.116;2024-03-22T01:37:37;7.60;;;2.75;;
55589;SDS011;41452;42.780;23.116;2024-03-22T01:40:03;6.13;;;3.30;;
55589;SDS011;41452;42.780;23.116;2024-03-22T01:42:30;5.57;;;3.22;;
55589;SDS011;41452;42.780;23.116;2024-03-22T01:44:55;7.22;;;3.45;;
55589;SDS011;41452;42.780;23.116;2024-03-22T01:47:21;8.73;;;4.05;;
55589;SDS011;41452;42.780;23.116;2024-03-22T01:49:46;9.30;;;3.28;;
55589;SDS011;41452;42.780;23.116;2024-03-22T01:52:14;10.00;;;3.97;;
55589;SDS011;41452;42.780;23.116;2024-03-22T01:54:39;7.82;;;3.05;;
55589;SDS011;41452;42.780;23.116;2024-03-22T01:57:05;7.70;;;3.50;;
55589;SDS011;41452;42.780;23.116;2024-03-22T01:59:30;9.57;;;3.17;;
55589;SDS011;41452;42.780;23.116;2024-03-22T02:01:57;8.65;;;3.58;;
55589;SDS011;41452;42.780;23.116;2024-03-22T02:04:23;6.18;;;3.20;;
55589;SDS011;41452;42.780;23.116;2024-03-22T02:06:48;5.97;;;3.08;;
55589;SDS011;41452;42.780;23.116;2024-03-22T02:09:14;6.60;;;2.97;;
55589;SDS011;41452;42.780;23.116;2024-03-22T02:11:40;5.75;;;3.20;;
55589;SDS011;41452;42.780;23.116;2024-03-22T02:14:05;6.35;;;3.38;;
55589;SDS011;41452;42.780;23.116;2024-03-22T02:16:31;6.40;;;2.92;;
55589;SDS011;41452;42.780;23.116;2024-03-22T02:18:56;6.43;;;3.30;;
55589;SDS011;41452;42.780;23.116;2024-03-22T02:21:21;6.82;;;2.83;;
55589;SDS011;41452;42.780;23.116;2024-03-22T02:23:47;5.95;;;3.08;;
55589;SDS011;41452;42.780;23.116;2024-03-22T02:26:12;6.55;;;3.10;;
55589;SDS011;41452;42.780;23.116;2024-03-22T02:28:38;7.15;;;3.60;;
55589;SDS011;41452;42.780;23.116;2024-03-22T02:31:03;7.63;;;3.60;;
55589;SDS011;41452;42.780;23.116;2024-03-22T02:33:29;5.88;;;3.28;;
55589;SDS011;41452;42.780;23.116;2024-03-22T02:35:54;6.95;;;3.08;;
55589;SDS011;41452;42.780;23.116;2024-03-22T02:38:20;5.78;;;3.47;;
55589;SDS011;41452;42.780;23.116;2024-03-22T02:40:46;5.82;;;2.95;;
55589;SDS011;41452;42.780;23.116;2024-03-22T02:43:13;7.32;;;3.60;;
55589;SDS011;41452;42.780;23.116;2024-03-22T02:45:38;5.75;;;3.03;;
55589;SDS011;41452;42.780;23.116;2024-03-22T02:48:04;8.25;;;3.03;;
55589;SDS011;41452;42.780;23.116;2024-03-22T02:50:33;5.78;;;3.33;;
55589;SDS011;41452;42.780;23.116;2024-03-22T02:53:00;6.40;;;3.30;;
55589;SDS011;41452;42.780;23.116;2024-03-22T02:55:25;9.00;;;3.25;;
55589;SDS011;41452;42.780;23.116;2024-03-22T02:57:51;8.00;;;3.55;;
55589;SDS011;41452;42.780;23.116;2024-03-22T03:00:16;9.02;;;3.28;;
55589;SDS011;41452;42.780;23.116;2024-03-22T03:02:43;7.15;;;3.38;;
55589;SDS011;41452;42.780;23.116;2024-03-22T03:05:08;7.45;;;3.22;;
55589;SDS011;41452;42.780;23.116;2024-03-22T03:07:37;7.55;;;3.42;;
55589;SDS011;41452;42.780;23.116;2024-03-22T03:10:02;5.57;;;3.35;;
55589;SDS011;41452;42.780;23.116;2024-03-22T03:12:28;7.50;;;3.45;;
55589;SDS011;41452;42.780;23.116;2024-03-22T03:14:53;5.13;;;3.28;;
55589;SDS011;41452;42.780;23.116;2024-03-22T03:17:19;6.72;;;3.15;;
55589;SDS011;41452;42.780;23.116;2024-03-22T03:19:44;5.88;;;3.35;;
55589;SDS011;41452;42.780;23.116;2024-03-22T03:22:09;7.70;;;3.95;;
55589;SDS011;41452;42.780;23.116;2024-03-22T03:24:35;7.63;;;3.25;;
55589;SDS011;41452;42.780;23.116;2024-03-22T03:27:00;6.53;;;3.60;;
55589;SDS011;41452;42.780;23.116;2024-03-22T03:29:27;6.25;;;2.85;;
55589;SDS011;41452;42.780;23.116;2024-03-22T03:31:52;11.40;;;3.25;;
55589;SDS011;41452;42.780;23.116;2024-03-22T03:34:18;8.90;;;3.63;;
55589;SDS011;41452;42.780;23.116;2024-03-22T03:36:44;6.72;;;2.92;;
55589;SDS011;41452;42.780;23.116;2024-03-22T03:39:10;8.00;;;3.60;;
55589;SDS011;41452;42.780;23.116;2024-03-22T03:41:35;7.10;;;2.97;;
55589;SDS011;41452;42.780;23.116;2024-03-22T03:44:00;6.03;;;3.50;;
55589;SDS011;41452;42.780;23.116;2024-03-22T03:46:26;9.10;;;3.65;;
55589;SDS011;41452;42.780;23.116;2024-03-22T03:48:51;7.22;;;3.80;;
55589;SDS011;41452;42.780;23.116;2024-03-22T03:51:16;5.70;;;3.38;;
55589;SDS011;41452;42.780;23.116;2024-03-22T03:53:42;7.45;;;3.30;;
55589;SDS011;41452;42.780;23.116;2024-03-22T03:56:07;9.48;;;3.85;;
55589;SDS011;41452;42.780;23.116;2024-03-22T03:58:32;8.18;;;3.65;;
55589;SDS011;41452;42.780;23.116;2024-03-22T04:00:58;11.10;;;3.63;;
55589;SDS011;41452;42.780;23.116;2024-03-22T04:03:23;6.85;;;3.55;;
55589;SDS011;41452;42.780;23.116;2024-03-22T04:05:58;6.38;;;3.45;;
55589;SDS011;41452;42.780;23.116;2024-03-22T04:08:27;8.18;;;3.30;;
55589;SDS011;41452;42.780;23.116;2024-03-22T04:15:52;7.63;;;3.78;;
55589;SDS011;41452;42.780;23.116;2024-03-22T04:18:18;6.50;;;3.63;;
55589;SDS011;41452;42.780;23.116;2024-03-22T04:20:53;7.63;;;3.65;;
55589;SDS011;41452;42.780;23.116;2024-03-22T04:23:22;6.03;;;3.30;;
55589;SDS011;41452;42.780;23.116;2024-03-22T04:25:57;9.65;;;4.07;;
55589;SDS011;41452;42.780;23.116;2024-03-22T04:28:24;7.18;;;3.70;;
55589;SDS011;41452;42.780;23.116;2024-03-22T04:30:59;7.72;;;3.55;;
55589;SDS011;41452;42.780;23.116;2024-03-22T04:33:25;8.50;;;3.80;;
55589;SDS011;41452;42.780;23.116;2024-03-22T04:35:51;7.55;;;4.03;;
55589;SDS011;41452;42.780;23.116;2024-03-22T04:38:17;5.32;;;3.10;;
55589;SDS011;41452;42.780;23.116;2024-03-22T04:40:43;10.00;;;3.60;;
55589;SDS011;41452;42.780;23.116;2024-03-22T04:43:08;7.72;;;4.10;;
55589;SDS011;41452;42.780;23.116;2024-03-22T04:45:34;8.88;;;3.80;;
55589;SDS011;41452;42.780;23.116;2024-03-22T04:48:01;7.38;;;3.72;;
55589;SDS011;41452;42.780;23.116;2024-03-22T04:50:26;11.02;;;4.55;;
55589;SDS011;41452;42.780;23.116;2024-03-22T04:52:52;10.50;;;4.15;;
55589;SDS011;41452;42.780;23.116;2024-03-22T04:55:17;7.22;;;3.30;;
55589;SDS011;41452;42.780;23.116;2024-03-22T04:57:42;14.13;;;5.57;;
55589;SDS011;41452;42.780;23.116;2024-03-22T05:00:08;15.05;;;6.30;;
55589;SDS011;41452;42.780;23.116;2024-03-22T05:02:34;7.95;;;3.88;;
55589;SDS011;41452;42.780;23.116;2024-03-22T05:04:59;9.82;;;4.85;;
55589;SDS011;41452;42.780;23.116;2024-03-22T05:07:25;12.13;;;6.18;;
55589;SDS011;41452;42.780;23.116;2024-03-22T05:09:50;23.27;;;10.35;;
55589;SDS011;41452;42.780;23.116;2024-03-22T05:12:15;11.57;;;5.05;;
55589;SDS011;41452;42.780;23.116;2024-03-22T05:14:41;8.95;;;4.22;;
55589;SDS011;41452;42.780;23.116;2024-03-22T05:17:06;7.28;;;4.07;;
55589;SDS011;41452;42.780;23.116;2024-03-22T05:19:32;9.73;;;4.07;;
55589;SDS011;41452;42.780;23.116;2024-03-22T05:21:57;5.68;;;3.38;;
55589;SDS011;41452;42.780;23.116;2024-03-22T05:24:22;6.43;;;3.78;;
55589;SDS011;41452;42.780;23.116;2024-03-22T05:26:48;5.95;;;3.85;;
55589;SDS011;41452;42.780;23.116;2024-03-22T05:29:13;10.52;;;4.20;;
55589;SDS011;41452;42.780;23.116;2024-03-22T05:31:46;7.35;;;3.90;;
55589;SDS011;41452;42.780;23.116;2024-03-22T05:34:13;6.93;;;3.38;;
55589;SDS011;41452;42.780;23.116;2024-03-22T05:36:39;7.57;;;3.58;;
55589;SDS011;41452;42.780;23.116;2024-03-22T05:39:05;7.88;;;3.05;;
55589;SDS011;41452;42.780;23.116;2024-03-22T05:41:30;8.85;;;3.60;;
55589;SDS011;41452;42.780;23.116;2024-03-22T05:43:56;6.35;;;3.47;;
55589;SDS011;41452;42.780;23.116;2024-03-22T05:46:21;8.77;;;3.78;;
55589;SDS011;41452;42.780;23.116;2024-03-22T05:48:46;6.90;;;3.50;;
55589;SDS011;41452;42.780;23.116;2024-03-22T05:51:13;8.60;;;4.38;;
55589;SDS011;41452;42.780;23.116;2024-03-22T05:53:39;10.32;;;4.50;;
55589;SDS011;41452;42.780;23.116;2024-03-22T05:56:04;14.02;;;4.40;;
55589;SDS011;41452;42.780;23.116;2024-03-22T05:58:30;11.98;;;4.95;;
55589;SDS011;41452;42.780;23.116;2024-03-22T06:00:56;10.30;;;5.05;;
55589;SDS011;41452;42.780;23.116;2024-03-22T06:03:21;8.27;;;4.53;;
55589;SDS011;41452;42.780;23.116;2024-03-22T06:05:47;10.90;;;4.40;;
55589;SDS011;41452;42.780;23.116;2024-03-22T06:08:12;8.95;;;3.80;;
55589;SDS011;41452;42.780;23.116;2024-03-22T06:10:38;14.70;;;4.80;;
55589;SDS011;41452;42.780;23.116;2024-03-22T06:13:03;9.82;;;4.47;;
55589;SDS011;41452;42.780;23.116;2024-03-22T06:15:29;10.95;;;4.65;;
55589;SDS011;41452;42.780;23.116;2024-03-22T06:17:54;20.25;;;4.53;;
55589;SDS011;41452;42.780;23.116;2024-03-22T06:20:19;16.70;;;5.40;;
55589;SDS011;41452;42.780;23.116;2024-03-22T06:22:45;8.27;;;4.10;;
55589;SDS011;41452;42.780;23.116;2024-03-22T06:25:10;10.63;;;5.03;;
55589;SDS011;41452;42.780;23.116;2024-03-22T06:27:35;12.18;;;4.93;;
55589;SDS011;41452;42.780;23.116;2024-03-22T06:30:01;15.93;;;4.80;;
55589;SDS011;41452;42.780;23.116;2024-03-22T06:32:26;11.38;;;4.85;;
55589;SDS011;41452;42.780;23.116;2024-03-22T06:34:51;9.25;;;4.82;;
55589;SDS011;41452;42.780;23.116;2024-03-22T06:37:17;10.18;;;5.07;;
55589;SDS011;41452;42.780;23.116;2024-03-22T06:39:42;9.13;;;4.80;;
55589;SDS011;41452;42.780;23.116;2024-03-22T06:42:07;13.75;;;5.93;;
55589;SDS011;41452;42.780;23.116;2024-03-22T06:44:33;11.30;;;4.43;;
55589;SDS011;41452;42.780;23.116;2024-03-22T06:46:58;12.23;;;5.45;;
55589;SDS011;41452;42.780;23.116;2024-03-22T06:49:24;10.20;;;4.40;;
55589;SDS011;41452;42.780;23.116;2024-03-22T06:51:50;9.32;;;5.05;;
55589;SDS011;41452;42.780;23.116;2024-03-22T06:54:15;15.90;;;4.88;;
55589;SDS011;41452;42.780;23.116;2024-03-22T06:56:41;8.77;;;4.68;;
55589;SDS011;41452;42.780;23.116;2024-03-22T06:59:06;7.97;;;4.90;;
55589;SDS011;41452;42.780;23.116;2024-03-22T07:01:31;11.80;;;5.22;;
55589;SDS011;41452;42.780;23.116;2024-03-22T07:03:57;13.50;;;5.30;;
55589;SDS011;41452;42.780;23.116;2024-03-22T07:06:22;10.55;;;4.47;;
55589;SDS011;41452;42.780;23.116;2024-03-22T07:08:47;8.68;;;4.45;;
55589;SDS011;41452;42.780;23.116;2024-03-22T07:11:13;15.77;;;5.80;;
55589;SDS011;41452;42.780;23.116;2024-03-22T07:13:38;12.60;;;5.32;;
55589;SDS011;41452;42.780;23.116;2024-03-22T07:16:04;12.30;;;5.53;;
55589;SDS011;41452;42.780;23.116;2024-03-22T07:18:30;12.15;;;5.80;;
55589;SDS011;41452;42.780;23.116;2024-03-22T07:20:55;12.30;;;5.50;;
55589;SDS011;41452;42.780;23.116;2024-03-22T07:23:20;14.10;;;5.40;;
55589;SDS011;41452;42.780;23.116;2024-03-22T07:25:46;13.63;;;5.10;;
55589;SDS011;41452;42.780;23.116;2024-03-22T07:28:13;10.63;;;4.97;;
55589;SDS011;41452;42.780;23.116;2024-03-22T07:30:39;10.48;;;5.38;;
55589;SDS011;41452;42.780;23.116;2024-03-22T07:33:04;12.43;;;4.95;;
55589;SDS011;41452;42.780;23.116;2024-03-22T07:35:29;10.23;;;4.68;;
55589;SDS011;41452;42.780;23.116;2024-03-22T07:37:56;12.35;;;4.65;;
55589;SDS011;41452;42.780;23.116;2024-03-22T07:40:22;13.25;;;4.88;;
55589;SDS011;41452;42.780;23.116;2024-03-22T07:42:47;9.70;;;4.68;;
55589;SDS011;41452;42.780;23.116;2024-03-22T07:45:12;8.35;;;4.05;;
55589;SDS011;41452;42.780;23.116;2024-03-22T07:47:38;8.90;;;4.05;;
55589;SDS011;41452;42.780;23.116;2024-03-22T07:50:05;15.85;;;4.53;;
55589;SDS011;41452;42.780;23.116;2024-03-22T07:52:31;8.32;;;4.32;;
55589;SDS011;41452;42.780;23.116;2024-03-22T07:54:56;10.23;;;4.82;;
55589;SDS011;41452;42.780;23.116;2024-03-22T07:57:21;8.95;;;3.85;;
55589;SDS011;41452;42.780;23.116;2024-03-22T07:59:48;8.63;;;3.55;;
55589;SDS011;41452;42.780;23.116;2024-03-22T08:02:13;7.68;;;3.92;;
55589;SDS011;41452;42.780;23.116;2024-03-22T08:04:39;5.95;;;3.90;;
55589;SDS011;41452;42.780;23.116;2024-03-22T08:07:04;9.93;;;4.82;;
55589;SDS011;41452;42.780;23.116;2024-03-22T08:09:29;9.18;;;4.32;;
55589;SDS011;41452;42.780;23.116;2024-03-22T08:11:55;10.90;;;4.38;;
55589;SDS011;41452;42.780;23.116;2024-03-22T08:14:20;7.88;;;3.90;;
55589;SDS011;41452;42.780;23.116;2024-03-22T08:16:45;8.30;;;3.80;;
55589;SDS011;41452;42.780;23.116;2024-03-22T08:19:11;10.93;;;4.68;;
55589;SDS011;41452;42.780;23.116;2024-03-22T08:21:36;7.70;;;4.07;;
55589;SDS011;41452;42.780;23.116;2024-03-22T08:24:02;8.05;;;3.80;;
55589;SDS011;41452;42.780;23.116;2024-03-22T08:26:27;6.85;;;4.05;;
55589;SDS011;41452;42.780;23.116;2024-03-22T08:28:53;8.82;;;4.28;;
55589;SDS011;41452;42.780;23.116;2024-03-22T08:31:18;8.35;;;4.22;;
55589;SDS011;41452;42.780;23.116;2024-03-22T08:33:50;9.07;;;4.30;;
55589;SDS011;41452;42.780;23.116;2024-03-22T08:36:15;6.65;;;3.72;;
55589;SDS011;41452;42.780;23.116;2024-03-22T08:38:41;9.90;;;3.50;;
55589;SDS011;41452;42.780;23.116;2024-03-22T08:41:07;6.43;;;4.15;;
55589;SDS011;41452;42.780;23.116;2024-03-22T08:43:32;8.13;;;4.60;;
55589;SDS011;41452;42.780;23.116;2024-03-22T08:45:57;6.60;;;3.65;;
55589;SDS011;41452;42.780;23.116;2024-03-22T08:48:23;13.68;;;3.80;;
55589;SDS011;41452;42.780;23.116;2024-03-22T08:50:48;7.22;;;4.03;;
55589;SDS011;41452;42.780;23.116;2024-03-22T08:53:14;9.63;;;3.90;;
55589;SDS011;41452;42.780;23.116;2024-03-22T08:55:45;7.68;;;4.20;;
55589;SDS011;41452;42.780;23.116;2024-03-22T08:58:11;8.45;;;4.40;;
55589;SDS011;41452;42.780;23.116;2024-03-22T09:00:37;6.90;;;3.95;;
55589;SDS011;41452;42.780;23.116;2024-03-22T09:03:03;12.55;;;4.50;;
55589;SDS011;41452;42.780;23.116;2024-03-22T09:05:28;8.82;;;3.88;;
55589;SDS011;41452;42.780;23.116;2024-03-22T09:07:54;6.85;;;3.58;;
55589;SDS011;41452;42.780;23.116;2024-03-22T09:10:20;5.85;;;3.55;;
55589;SDS011;41452;42.780;23.116;2024-03-22T09:12:46;7.78;;;4.05;;
55589;SDS011;41452;42.780;23.116;2024-03-22T09:15:11;8.75;;;3.75;;
55589;SDS011;41452;42.780;23.116;2024-03-22T09:17:36;11.85;;;3.67;;
55589;SDS011;41452;42.780;23.116;2024-03-22T09:20:02;6.18;;;3.47;;
55589;SDS011;41452;42.780;23.116;2024-03-22T09:22:29;7.53;;;4.07;;
55589;SDS011;41452;42.780;23.116;2024-03-22T09:24:57;6.78;;;3.40;;
55589;SDS011;41452;42.780;23.116;2024-03-22T09:27:22;7.00;;;3.20;;
55589;SDS011;41452;42.780;23.116;2024-03-22T09:29:48;5.97;;;3.22;;
55589;SDS011;41452;42.780;23.116;2024-03-22T09:32:14;6.30;;;3.42;;
55589;SDS011;41452;42.780;23.116;2024-03-22T09:34:39;6.57;;;3.42;;
55589;SDS011;41452;42.780;23.116;2024-03-22T09:37:05;7.28;;;3.58;;
55589;SDS011;41452;42.780;23.116;2024-03-22T09:39:31;6.47;;;3.67;;
55589;SDS011;41452;42.780;23.116;2024-03-22T09:41:57;5.65;;;3.38;;
55589;SDS011;41452;42.780;23.116;2024-03-22T09:44:24;8.30;;;3.65;;
55589;SDS011;41452;42.780;23.116;2024-03-22T09:46:52;7.63;;;4.10;;
55589;SDS011;41452;42.780;23.116;2024-03-22T09:49:18;10.30;;;4.45;;
55589;SDS011;41452;42.780;23.116;2024-03-22T09:51:43;5.80;;;3.28;;
55589;SDS011;41452;42.780;23.116;2024-03-22T09:54:09;5.55;;;3.55;;
55589;SDS011;41452;42.780;23.116;2024-03-22T09:56:35;8.82;;;3.30;;
55589;SDS011;41452;42.780;23.116;2024-03-22T09:59:03;9.68;;;3.90;;
55589;SDS011;41452;42.780;23.116;2024-03-22T10:01:29;5.35;;;3.00;;
55589;SDS011;41452;42.780;23.116;2024-03-22T10:03:54;7.47;;;3.00;;
55589;SDS011;41452;42.780;23.116;2024-03-22T10:06:20;7.03;;;3.58;;
55589;SDS011;41452;42.780;23.116;2024-03-22T10:08:45;6.00;;;3.53;;
55589;SDS011;41452;42.780;23.116;2024-03-22T10:11:11;7.20;;;3.45;;
55589;SDS011;41452;42.780;23.116;2024-03-22T10:13:37;7.38;;;3.42;;
55589;SDS011;41452;42.780;23.116;2024-03-22T10:16:02;9.52;;;3.70;;
55589;SDS011;41452;42.780;23.116;2024-03-22T10:18:28;7.85;;;3.78;;
55589;SDS011;41452;42.780;23.116;2024-03-22T10:21:00;6.85;;;3.53;;
55589;SDS011;41452;42.780;23.116;2024-03-22T10:23:29;10.52;;;4.40;;
55589;SDS011;41452;42.780;23.116;2024-03-22T10:25:56;5.93;;;3.38;;
55589;SDS011;41452;42.780;23.116;2024-03-22T10:28:23;7.30;;;3.45;;
55589;SDS011;41452;42.780;23.116;2024-03-22T10:30:50;7.00;;;3.65;;
55589;SDS011;41452;42.780;23.116;2024-03-22T10:33:18;5.55;;;3.40;;
55589;SDS011;41452;42.780;23.116;2024-03-22T10:35:44;7.03;;;3.42;;
55589;SDS011;41452;42.780;23.116;2024-03-22T10:38:11;6.32;;;3.25;;
55589;SDS011;41452;42.780;23.116;2024-03-22T10:40:38;5.35;;;2.95;;
55589;SDS011;41452;42.780;23.116;2024-03-22T10:43:05;4.80;;;3.25;;
55589;SDS011;41452;42.780;23.116;2024-03-22T10:45:31;6.65;;;3.55;;
55589;SDS011;41452;42.780;23.116;2024-03-22T10:47:58;6.28;;;3.47;;
55589;SDS011;41452;42.780;23.116;2024-03-22T10:50:25;9.63;;;3.03;;
55589;SDS011;41452;42.780;23.116;2024-03-22T10:52:52;6.95;;;3.78;;
55589;SDS011;41452;42.780;23.116;2024-03-22T10:55:22;8.18;;;3.50;;
55589;SDS011;41452;42.780;23.116;2024-03-22T10:57:56;11.80;;;3.30;;
55589;SDS011;41452;42.780;23.116;2024-03-22T11:00:32;7.43;;;3.25;;
55589;SDS011;41452;42.780;23.116;2024-03-22T11:02:59;6.32;;;3.17;;
55589;SDS011;41452;42.780;23.116;2024-03-22T11:05:27;7.03;;;3.40;;
55589;SDS011;41452;42.780;23.116;2024-03-22T11:08:02;6.57;;;3.35;;
55589;SDS011;41452;42.780;23.116;2024-03-22T11:10:34;5.97;;;3.53;;
55589;SDS011;41452;42.780;23.116;2024-03-22T11:13:03;7.05;;;3.70;;
55589;SDS011;41452;42.780;23.116;2024-03-22T11:15:30;5.97;;;3.33;;
55589;SDS011;41452;42.780;23.116;2024-03-22T11:17:59;6.63;;;3.50;;
55589;SDS011;41452;42.780;23.116;2024-03-22T11:20:25;4.57;;;3.00;;
55589;SDS011;41452;42.780;23.116;2024-03-22T11:22:51;9.43;;;3.33;;
55589;SDS011;41452;42.780;23.116;2024-03-22T11:25:17;6.47;;;3.47;;
55589;SDS011;41452;42.780;23.116;2024-03-22T11:27:44;7.40;;;3.10;;
55589;SDS011;41452;42.780;23.116;2024-03-22T11:30:09;7.25;;;3.90;;
55589;SDS011;41452;42.780;23.116;2024-03-22T11:32:35;4.47;;;2.75;;
55589;SDS011;41452;42.780;23.116;2024-03-22T11:35:07;8.65;;;3.33;;
55589;SDS011;41452;42.780;23.116;2024-03-22T11:37:36;6.30;;;3.90;;
55589;SDS011;41452;42.780;23.116;2024-03-22T11:40:04;5.70;;;3.35;;
55589;SDS011;41452;42.780;23.116;2024-03-22T11:42:34;6.63;;;3.10;;
55589;SDS011;41452;42.780;23.116;2024-03-22T11:45:00;9.88;;;3.85;;
55589;SDS011;41452;42.780;23.116;2024-03-22T11:47:27;5.45;;;3.53;;
55589;SDS011;41452;42.780;23.116;2024-03-22T11:49:52;7.00;;;3.28;;
55589;SDS011;41452;42.780;23.116;2024-03-22T11:52:23;5.38;;;2.90;;
55589;SDS011;41452;42.780;23.116;2024-03-22T11:54:52;11.63;;;3.45;;
55589;SDS011;41452;42.780;23.116;2024-03-22T11:57:20;6.88;;;3.33;;
55589;SDS011;41452;42.780;23.116;2024-03-22T11:59:46;9.48;;;3.40;;
55589;SDS011;41452;42.780;23.116;2024-03-22T12:02:12;6.07;;;3.25;;
55589;SDS011;41452;42.780;23.116;2024-03-22T12:04:47;7.05;;;3.55;;
55589;SDS011;41452;42.780;23.116;2024-03-22T12:09:39;6.22;;;3.28;;
55589;SDS011;41452;42.780;23.116;2024-03-22T12:12:06;4.90;;;3.00;;
55589;SDS011;41452;42.780;23.116;2024-03-22T12:14:34;5.78;;;2.83;;
55589;SDS011;41452;42.780;23.116;2024-03-22T12:16:59;6.93;;;3.08;;
55589;SDS011;41452;42.780;23.116;2024-03-22T12:19:25;4.97;;;2.88;;
55589;SDS011;41452;42.780;23.116;2024-03-22T12:21:50;5.07;;;2.88;;
55589;SDS011;41452;42.780;23.116;2024-03-22T12:24:16;14.15;;;3.05;;
55589;SDS011;41452;42.780;23.116;2024-03-22T12:26:41;8.20;;;3.28;;
55589;SDS011;41452;42.780;23.116;2024-03-22T12:29:06;6.30;;;3.28;;
55589;SDS011;41452;42.780;23.116;2024-03-22T12:31:32;5.13;;;2.88;;
55589;SDS011;41452;42.780;23.116;2024-03-22T12:33:58;8.63;;;3.72;;
55589;SDS011;41452;42.780;23.116;2024-03-22T12:36:24;5.97;;;3.10;;
55589;SDS011;41452;42.780;23.116;2024-03-22T12:38:50;5.05;;;3.40;;
55589;SDS011;41452;42.780;23.116;2024-03-22T12:41:15;5.57;;;2.55;;
55589;SDS011;41452;42.780;23.116;2024-03-22T12:43:41;6.40;;;3.22;;
55589;SDS011;41452;42.780;23.116;2024-03-22T12:46:07;5.22;;;3.15;;
55589;SDS011;41452;42.780;23.116;2024-03-22T12:48:33;6.32;;;3.25;;
55589;SDS011;41452;42.780;23.116;2024-03-22T12:50:58;6.18;;;2.90;;
55589;SDS011;41452;42.780;23.116;2024-03-22T12:53:25;9.23;;;3.42;;
55589;SDS011;41452;42.780;23.116;2024-03-22T12:55:50;6.07;;;3.22;;
55589;SDS011;41452;42.780;23.116;2024-03-22T12:58:16;8.00;;;3.60;;
55589;SDS011;41452;42.780;23.116;2024-03-22T13:00:41;8.65;;;3.50;;
55589;SDS011;41452;42.780;23.116;2024-03-22T13:03:06;7.45;;;3.30;;
55589;SDS011;41452;42.780;23.116;2024-03-22T13:05:32;6.88;;;2.97;;
55589;SDS011;41452;42.780;23.116;2024-03-22T13:07:57;8.73;;;3.40;;
55589;SDS011;41452;42.780;23.116;2024-03-22T13:10:24;4.90;;;3.05;;
55589;SDS011;41452;42.780;23.116;2024-03-22T13:12:49;6.40;;;3.30;;
55589;SDS011;41452;42.780;23.116;2024-03-22T13:15:14;5.60;;;3.15;;
55589;SDS011;41452;42.780;23.116;2024-03-22T13:17:40;5.55;;;3.15;;
55589;SDS011;41452;42.780;23.116;2024-03-22T13:20:05;10.93;;;4.13;;
55589;SDS011;41452;42.780;23.116;2024-03-22T13:22:35;7.35;;;2.75;;
55589;SDS011;41452;42.780;23.116;2024-03-22T13:25:04;6.70;;;3.05;;
55589;SDS011;41452;42.780;23.116;2024-03-22T13:27:32;6.22;;;3.28;;
55589;SDS011;41452;42.780;23.116;2024-03-22T13:29:59;6.43;;;4.00;;
55589;SDS011;41452;42.780;23.116;2024-03-22T13:32:25;5.47;;;3.15;;
55589;SDS011;41452;42.780;23.116;2024-03-22T13:34:50;5.03;;;3.13;;
55589;SDS011;41452;42.780;23.116;2024-03-22T13:37:16;7.93;;;3.13;;
55589;SDS011;41452;42.780;23.116;2024-03-22T13:39:41;6.35;;;3.40;;
55589;SDS011;41452;42.780;23.116;2024-03-22T13:42:06;5.55;;;3.13;;
55589;SDS011;41452;42.780;23.116;2024-03-22T13:44:32;8.93;;;3.40;;
55589;SDS011;41452;42.780;23.116;2024-03-22T13:46:58;4.85;;;3.25;;
55589;SDS011;41452;42.780;23.116;2024-03-22T13:49:23;7.03;;;4.10;;
55589;SDS011;41452;42.780;23.116;2024-03-22T13:51:48;5.13;;;3.25;;
55589;SDS011;41452;42.780;23.116;2024-03-22T13:54:14;8.07;;;3.20;;
55589;SDS011;41452;42.780;23.116;2024-03-22T13:56:40;7.97;;;2.97;;
55589;SDS011;41452;42.780;23.116;2024-03-22T13:59:06;6.45;;;3.42;;
55589;SDS011;41452;42.780;23.116;2024-03-22T14:01:34;5.57;;;3.03;;
55589;SDS011;41452;42.780;23.116;2024-03-22T14:04:03;9.90;;;3.88;;
55589;SDS011;41452;42.780;23.116;2024-03-22T14:06:30;6.28;;;3.55;;
55589;SDS011;41452;42.780;23.116;2024-03-22T14:08:56;6.80;;;3.08;;
55589;SDS011;41452;42.780;23.116;2024-03-22T14:11:25;6.22;;;3.45;;
55589;SDS011;41452;42.780;23.116;2024-03-22T14:13:51;6.43;;;2.95;;
55589;SDS011;41452;42.780;23.116;2024-03-22T14:16:17;6.25;;;3.67;;
55589;SDS011;41452;42.780;23.116;2024-03-22T14:18:43;5.78;;;3.20;;
55589;SDS011;41452;42.780;23.116;2024-03-22T14:21:08;7.90;;;3.40;;
55589;SDS011;41452;42.780;23.116;2024-03-22T14:23:33;6.40;;;3.15;;
55589;SDS011;41452;42.780;23.116;2024-03-22T14:25:59;6.38;;;3.08;;
55589;SDS011;41452;42.780;23.116;2024-03-22T14:28:24;9.82;;;2.95;;
55589;SDS011;41452;42.780;23.116;2024-03-22T14:30:50;7.28;;;3.10;;
55589;SDS011;41452;42.780;23.116;2024-03-22T14:33:15;6.72;;;3.20;;